createdAt,value
2017-09-23T00:02:22.562Z,101815.78
2017-09-23T00:04:50.194Z,101814.42
2017-09-23T00:07:17.793Z,101810.91
2017-09-23T00:09:45.435Z,101811.03
2017-09-23T00:12:13.110Z,101819.55
2017-09-23T00:14:40.763Z,101813.88
2017-09-23T00:17:08.435Z,101813.05
2017-09-23T00:19:36.126Z,101808.75
2017-09-23T00:22:03.738Z,101808.20
2017-09-23T00:24:31.431Z,101808.48
2017-09-23T00:26:59.036Z,101813.33
2017-09-23T00:29:26.646Z,101804.95
2017-09-23T00:31:54.277Z,101813.31
2017-09-23T00:34:21.879Z,101813.48
2017-09-23T00:36:49.518Z,101808.87
2017-09-23T00:39:17.118Z,101807.78
2017-09-23T00:41:44.750Z,101806.44
2017-09-23T00:44:12.454Z,101798.71
2017-09-23T00:46:40.133Z,101799.66
2017-09-23T00:49:07.750Z,101798.71
2017-09-23T00:51:35.382Z,101801.98
2017-09-23T00:54:02.999Z,101804.55
2017-09-23T00:56:30.658Z,101807.49
2017-09-23T00:58:58.275Z,101808.85
2017-09-23T01:01:25.928Z,101805.63
2017-09-23T01:03:53.550Z,101810.20
2017-09-23T01:06:21.239Z,101806.42
2017-09-23T01:08:48.836Z,101802.11
2017-09-23T01:11:16.458Z,101802.11
2017-09-23T01:13:44.094Z,101811.55
2017-09-23T01:16:11.723Z,101813.05
2017-09-23T01:18:39.378Z,101806.28
2017-09-23T01:21:06.985Z,101808.05
2017-09-23T01:23:34.598Z,101815.33
2017-09-23T01:26:02.219Z,101820.19
2017-09-23T01:28:29.823Z,101817.78
2017-09-23T01:30:57.425Z,101825.06
2017-09-23T01:33:25.061Z,101819.53
2017-09-23T01:35:52.686Z,101817.77
2017-09-23T01:38:20.315Z,101819.95
2017-09-23T01:40:47.919Z,101823.73
2017-09-23T01:43:15.562Z,101817.25
2017-09-23T01:45:43.355Z,101818.33
2017-09-23T01:48:11.014Z,101818.88
2017-09-23T01:50:38.680Z,101817.80
2017-09-23T01:53:06.307Z,101822.11
2017-09-23T01:55:33.918Z,101823.73
2017-09-23T01:58:01.540Z,101823.33
2017-09-23T02:00:29.170Z,101828.18
2017-09-23T02:02:56.807Z,101833.31
2017-09-23T02:05:24.414Z,101831.94
2017-09-23T02:07:52.078Z,101831.75
2017-09-23T02:10:19.751Z,101834.20
2017-09-23T02:12:47.386Z,101835.12
2017-09-23T02:15:14.983Z,101838.91
2017-09-23T02:17:42.674Z,101842.69
2017-09-23T02:20:10.283Z,101845.91
2017-09-23T02:22:38.410Z,101841.58
2017-09-23T02:25:06.025Z,101841.56
2017-09-23T02:27:33.649Z,101837.11
2017-09-23T02:30:01.258Z,101833.73
2017-09-23T02:32:28.869Z,101838.84
2017-09-23T02:34:56.499Z,101837.90
2017-09-23T02:37:24.109Z,101836.39
2017-09-23T02:39:51.760Z,101839.50
2017-09-23T02:42:19.386Z,101842.35
2017-09-23T02:44:47.022Z,101839.66
2017-09-23T02:47:14.614Z,101838.95
2017-09-23T02:49:42.260Z,101842.88
2017-09-23T02:52:09.859Z,101838.82
2017-09-23T02:54:37.498Z,101845.73
2017-09-23T02:57:05.095Z,101837.35
2017-09-23T02:59:32.742Z,101839.41
2017-09-23T03:02:00.355Z,101842.48
2017-09-23T03:04:27.984Z,101840.59
2017-09-23T03:06:55.581Z,101843.16
2017-09-23T03:09:23.234Z,101842.61
2017-09-23T03:11:50.871Z,101843.45
2017-09-23T03:14:18.522Z,101839.27
2017-09-23T03:16:46.122Z,101843.42
2017-09-23T03:19:13.792Z,101845.43
2017-09-23T03:21:41.430Z,101844.63
2017-09-23T03:24:09.151Z,101851.94
2017-09-23T03:26:36.755Z,101848.26
2017-09-23T03:29:04.374Z,101845.31
2017-09-23T03:31:31.980Z,101850.84
2017-09-23T03:33:59.626Z,101846.80
2017-09-23T03:36:27.235Z,101848.52
2017-09-23T03:38:54.898Z,101843.13
2017-09-23T03:41:22.490Z,101838.94
2017-09-23T03:43:50.118Z,101845.67
2017-09-23T03:46:17.720Z,101842.16
2017-09-23T03:48:45.346Z,101843.77
2017-09-23T03:51:12.931Z,101847.30
2017-09-23T03:53:40.589Z,101849.14
2017-09-23T03:56:08.221Z,101853.86
2017-09-23T03:58:35.879Z,101847.23
2017-09-23T04:01:03.616Z,101847.25
2017-09-23T04:03:31.266Z,101847.91
2017-09-23T04:05:58.879Z,101850.23
2017-09-23T04:08:26.526Z,101851.96
2017-09-23T04:10:54.122Z,101847.55
2017-09-23T04:13:22.826Z,101845.80
2017-09-23T04:15:50.424Z,101845.80
2017-09-23T04:18:18.058Z,101843.48
2017-09-23T04:20:45.659Z,101844.04
2017-09-23T04:23:13.302Z,101849.59
2017-09-23T04:25:40.906Z,101851.70
2017-09-23T04:28:08.541Z,101852.81
2017-09-23T04:30:36.139Z,101854.53
2017-09-23T04:33:03.783Z,101846.94
2017-09-23T04:35:31.384Z,101851.70
2017-09-23T04:37:58.991Z,101847.91
2017-09-23T04:40:26.639Z,101855.21
2017-09-23T04:42:54.299Z,101854.41
2017-09-23T04:45:21.906Z,101852.66
2017-09-23T04:47:49.514Z,101857.77
2017-09-23T04:50:17.135Z,101860.81
2017-09-23T04:52:44.737Z,101861.44
2017-09-23T04:55:12.365Z,101862.38
2017-09-23T04:57:39.965Z,101866.27
2017-09-23T05:00:07.626Z,101863.85
2017-09-23T05:02:35.238Z,101861.82
2017-09-23T05:05:02.891Z,101867.33
2017-09-23T05:07:30.488Z,101870.30
2017-09-23T05:09:58.111Z,101870.71
2017-09-23T05:12:25.723Z,101869.77
2017-09-23T05:14:53.354Z,101867.47
2017-09-23T05:17:20.959Z,101868.16
2017-09-23T05:19:48.582Z,101870.05
2017-09-23T05:22:16.205Z,101869.78
2017-09-23T05:24:43.845Z,101871.70
2017-09-23T05:27:11.497Z,101871.83
2017-09-23T05:29:39.125Z,101875.33
2017-09-23T05:32:06.739Z,101877.50
2017-09-23T05:34:34.392Z,101875.30
2017-09-23T05:37:02.047Z,101882.16
2017-09-23T05:39:29.661Z,101882.55
2017-09-23T05:41:57.267Z,101884.71
2017-09-23T05:44:24.908Z,101882.40
2017-09-23T05:46:52.506Z,101882.13
2017-09-23T05:49:20.172Z,101889.86
2017-09-23T05:51:47.777Z,101885.27
2017-09-23T05:54:15.400Z,101890.23
2017-09-23T05:56:43.003Z,101894.65
2017-09-23T05:59:10.774Z,101894.52
2017-09-23T06:01:38.377Z,101895.77
2017-09-23T06:04:06.033Z,101899.28
2017-09-23T06:06:33.654Z,101904.11
2017-09-23T06:09:01.254Z,101906.94
2017-09-23T06:11:28.882Z,101902.91
2017-09-23T06:13:56.789Z,101892.27
2017-09-23T06:16:24.440Z,101894.69
2017-09-23T06:18:52.054Z,101896.34
2017-09-23T06:21:19.707Z,101894.62
2017-09-23T06:23:47.333Z,101900.70
2017-09-23T06:26:14.966Z,101894.52
2017-09-23T06:28:42.581Z,101908.02
2017-09-23T06:31:10.251Z,101904.37
2017-09-23T06:33:37.850Z,101901.91
2017-09-23T06:36:05.483Z,101900.55
2017-09-23T06:38:33.091Z,101910.81
2017-09-23T06:41:00.745Z,101901.88
2017-09-23T06:43:28.430Z,101909.97
2017-09-23T06:45:56.102Z,101905.11
2017-09-23T06:48:23.734Z,101908.35
2017-09-23T06:50:51.330Z,101912.27
2017-09-23T06:53:18.959Z,101915.41
2017-09-23T06:55:46.619Z,101909.86
2017-09-23T06:58:14.263Z,101917.86
2017-09-23T07:00:41.873Z,101912.22
2017-09-23T07:03:09.499Z,101912.66
2017-09-23T07:05:37.175Z,101913.50
2017-09-23T07:08:04.813Z,101910.78
2017-09-23T07:10:32.406Z,101914.18
2017-09-23T07:13:00.142Z,101913.76
2017-09-23T07:18:03.707Z,101914.30
2017-09-23T07:20:32.597Z,101915.55
2017-09-23T07:23:00.239Z,101917.22
2017-09-23T07:25:27.848Z,101923.98
2017-09-23T07:27:55.490Z,101922.12
2017-09-23T07:30:23.083Z,101926.31
2017-09-23T07:32:50.719Z,101925.92
2017-09-23T07:35:18.342Z,101930.75
2017-09-23T07:37:45.976Z,101933.45
2017-09-23T07:40:13.595Z,101932.90
2017-09-23T07:42:41.240Z,101938.84
2017-09-23T07:45:08.838Z,101943.69
2017-09-23T07:47:36.485Z,101940.81
2017-09-23T07:50:04.171Z,101937.98
2017-09-23T07:52:31.826Z,101945.72
2017-09-23T07:54:59.430Z,101945.31
2017-09-23T07:57:27.175Z,101945.61
2017-09-23T07:59:54.786Z,101946.34
2017-09-23T08:02:22.427Z,101955.84
2017-09-23T08:04:50.088Z,101960.29
2017-09-23T08:07:17.720Z,101962.13
2017-09-23T08:09:45.446Z,101960.44
2017-09-23T08:12:13.090Z,101964.33
2017-09-23T08:14:41.020Z,101965.44
2017-09-23T08:17:08.692Z,101971.74
2017-09-23T08:19:36.370Z,101974.30
2017-09-23T08:22:05.632Z,101974.45
2017-09-23T08:24:33.284Z,101972.16
2017-09-23T08:27:01.114Z,101978.80
2017-09-23T08:29:28.724Z,101976.78
2017-09-23T08:31:56.380Z,101974.91
2017-09-23T08:34:23.994Z,101970.20
2017-09-23T08:36:51.603Z,101966.47
2017-09-23T08:39:19.230Z,101971.52
2017-09-23T08:41:46.997Z,101969.52
2017-09-23T08:44:14.633Z,101967.77
2017-09-23T08:46:42.330Z,101964.92
2017-09-23T08:49:10.124Z,101963.44
2017-09-23T08:51:37.731Z,101964.28
2017-09-23T08:54:05.377Z,101966.56
2017-09-23T08:56:32.974Z,101966.44
2017-09-23T08:59:00.674Z,101965.66
2017-09-23T09:01:28.286Z,101961.23
2017-09-23T09:03:55.984Z,101962.18
2017-09-23T09:06:23.589Z,101964.09
2017-09-23T09:08:51.215Z,101964.25
2017-09-23T09:11:18.855Z,101962.91
2017-09-23T09:13:46.503Z,101967.22
2017-09-23T09:16:14.102Z,101966.95
2017-09-23T09:18:41.750Z,101967.91
2017-09-23T09:21:09.388Z,101965.33
2017-09-23T09:23:37.013Z,101969.13
2017-09-23T09:26:04.638Z,101969.50
2017-09-23T09:28:32.283Z,101964.89
2017-09-23T09:30:59.896Z,101956.65
2017-09-23T09:33:27.552Z,101964.92
2017-09-23T09:35:55.170Z,101960.22
2017-09-23T09:38:22.850Z,101955.38
2017-09-23T09:40:50.490Z,101955.08
2017-09-23T09:43:18.100Z,101954.80
2017-09-23T09:45:45.742Z,101959.37
2017-09-23T09:48:13.366Z,101949.70
2017-09-23T09:50:40.981Z,101951.47
2017-09-23T09:53:08.665Z,101950.97
2017-09-23T09:55:36.282Z,101945.55
2017-09-23T09:58:03.934Z,101950.04
2017-09-23T10:00:31.554Z,101957.27
2017-09-23T10:02:59.154Z,101953.48
2017-09-23T10:05:26.849Z,101947.92
2017-09-23T10:07:54.866Z,101947.39
2017-09-23T10:10:22.523Z,101948.06
2017-09-23T10:12:50.132Z,101943.34
2017-09-23T10:15:17.786Z,101947.92
2017-09-23T10:17:45.424Z,101954.91
2017-09-23T10:20:13.174Z,101940.30
2017-09-23T10:22:40.791Z,101935.50
2017-09-23T10:25:08.443Z,101933.30
2017-09-23T10:27:36.060Z,101933.45
2017-09-23T10:30:03.695Z,101932.88
2017-09-23T10:32:31.300Z,101932.08
2017-09-23T10:34:59.057Z,101926.12
2017-09-23T10:37:26.701Z,101923.52
2017-09-23T10:39:54.334Z,101923.08
2017-09-23T10:42:21.955Z,101924.20
2017-09-23T10:44:49.822Z,101920.63
2017-09-23T10:47:18.087Z,101920.73
2017-09-23T10:49:45.752Z,101923.35
2017-09-23T10:52:13.358Z,101918.80
2017-09-23T10:54:40.994Z,101913.94
2017-09-23T10:57:08.603Z,101911.30
2017-09-23T10:59:36.227Z,101914.67
2017-09-23T11:02:03.879Z,101907.52
2017-09-23T11:04:31.541Z,101908.28
2017-09-23T11:06:59.195Z,101906.44
2017-09-23T11:09:26.873Z,101903.45
2017-09-23T11:11:54.615Z,101903.14
2017-09-23T11:14:22.253Z,101905.06
2017-09-23T11:16:49.871Z,101894.33
2017-09-23T11:19:17.524Z,101892.11
2017-09-23T11:21:45.153Z,101895.22
2017-09-23T11:24:12.820Z,101891.15
2017-09-23T11:26:40.427Z,101895.60
2017-09-23T11:29:08.091Z,101891.37
2017-09-23T11:31:35.695Z,101891.50
2017-09-23T11:34:03.336Z,101889.83
2017-09-23T11:36:30.941Z,101891.14
2017-09-23T11:38:58.571Z,101888.13
2017-09-23T11:41:26.230Z,101878.41
2017-09-23T11:43:53.870Z,101882.87
2017-09-23T11:46:21.479Z,101875.14
2017-09-23T11:48:49.126Z,101877.72
2017-09-23T11:51:16.795Z,101872.72
2017-09-23T11:53:44.447Z,101875.96
2017-09-23T11:56:12.061Z,101867.67
2017-09-23T11:58:39.758Z,101867.17
2017-09-23T12:01:07.359Z,101867.11
2017-09-23T12:03:34.977Z,101871.01
2017-09-23T12:06:02.607Z,101869.35
2017-09-23T12:08:30.255Z,101864.55
2017-09-23T12:10:57.874Z,101866.53
2017-09-23T12:13:25.515Z,101859.09
2017-09-23T12:15:53.114Z,101855.07
2017-09-23T12:18:20.781Z,101847.69
2017-09-23T12:20:48.390Z,101844.95
2017-09-23T12:23:16.014Z,101847.95
2017-09-23T12:25:43.642Z,101849.56
2017-09-23T12:28:11.259Z,101846.38
2017-09-23T12:30:39.042Z,101839.83
2017-09-23T12:33:06.659Z,101837.77
2017-09-23T12:35:34.305Z,101836.91
2017-09-23T12:38:01.926Z,101833.86
2017-09-23T12:40:29.569Z,101837.48
2017-09-23T12:42:57.186Z,101838.43
2017-09-23T12:45:24.850Z,101828.43
2017-09-23T12:47:52.447Z,101826.83
2017-09-23T12:50:20.110Z,101828.70
2017-09-23T12:52:47.706Z,101820.82
2017-09-23T12:55:15.352Z,101825.88
2017-09-23T12:57:42.969Z,101828.64
2017-09-23T13:00:10.631Z,101830.33
2017-09-23T13:02:38.766Z,101827.17
2017-09-23T13:05:06.433Z,101822.42
2017-09-23T13:07:34.047Z,101820.06
2017-09-23T13:10:01.689Z,101819.43
2017-09-23T13:12:29.404Z,101826.31
2017-09-23T13:14:57.026Z,101818.45
2017-09-23T13:17:24.641Z,101819.11
2017-09-23T13:19:52.284Z,101816.75
2017-09-23T13:22:19.906Z,101816.78
2017-09-23T13:24:47.535Z,101809.38
2017-09-23T13:27:15.147Z,101807.95
2017-09-23T13:29:42.810Z,101814.69
2017-09-23T13:32:10.434Z,101814.73
2017-09-23T13:34:38.071Z,101810.72
2017-09-23T13:37:05.694Z,101808.34
2017-09-23T13:39:33.343Z,101808.50
2017-09-23T13:42:00.988Z,101798.77
2017-09-23T13:44:28.663Z,101798.05
2017-09-23T13:46:56.279Z,101798.44
2017-09-23T13:49:23.924Z,101795.67
2017-09-23T13:51:51.650Z,101783.69
2017-09-23T13:54:19.311Z,101781.83
2017-09-23T13:56:46.974Z,101778.22
2017-09-23T13:59:14.785Z,101779.96
2017-09-23T14:01:42.421Z,101779.95
2017-09-23T14:04:10.201Z,101773.56
2017-09-23T14:06:37.844Z,101770.83
2017-09-23T14:09:05.541Z,101768.09
2017-09-23T14:11:33.181Z,101762.36
2017-09-23T14:14:00.786Z,101765.89
2017-09-23T14:16:28.426Z,101765.20
2017-09-23T14:18:56.065Z,101762.16
2017-09-23T14:21:23.696Z,101760.98
2017-09-23T14:23:51.301Z,101769.20
2017-09-23T14:26:18.948Z,101766.06
2017-09-23T14:28:46.562Z,101772.22
2017-09-23T14:31:14.208Z,101767.97
2017-09-23T14:33:41.828Z,101763.19
2017-09-23T14:36:09.460Z,101760.27
2017-09-23T14:38:37.080Z,101760.53
2017-09-23T14:41:04.826Z,101753.33
2017-09-23T14:43:32.455Z,101754.63
2017-09-23T14:46:00.108Z,101752.39
2017-09-23T14:48:27.726Z,101751.97
2017-09-23T14:50:55.367Z,101749.81
2017-09-23T14:53:22.978Z,101750.14
2017-09-23T14:55:50.703Z,101753.42
2017-09-23T14:58:18.321Z,101744.84
2017-09-23T15:00:45.924Z,101750.12
2017-09-23T15:03:13.566Z,101746.52
2017-09-23T15:05:41.185Z,101740.45
2017-09-23T15:08:08.839Z,101742.60
2017-09-23T15:10:36.453Z,101740.20
2017-09-23T15:13:04.320Z,101738.87
2017-09-23T15:15:32.062Z,101740.69
2017-09-23T15:17:59.706Z,101740.64
2017-09-23T15:20:27.344Z,101736.55
2017-09-23T15:22:54.997Z,101737.21
2017-09-23T15:25:22.671Z,101739.84
2017-09-23T15:27:50.347Z,101746.92
2017-09-23T15:30:18.098Z,101742.36
2017-09-23T15:32:45.767Z,101738.98
2017-09-23T15:35:13.369Z,101736.28
2017-09-23T15:37:41.018Z,101734.45
2017-09-23T15:40:08.619Z,101732.05
2017-09-23T15:42:37.084Z,101728.78
2017-09-23T15:45:04.847Z,101724.52
2017-09-23T15:47:32.553Z,101729.03
2017-09-23T15:50:00.160Z,101724.99
2017-09-23T15:52:27.834Z,101723.47
2017-09-23T15:54:56.815Z,101725.88
2017-09-23T15:57:24.531Z,101724.03
2017-09-23T15:59:52.130Z,101724.56
2017-09-23T16:02:19.762Z,101727.63
2017-09-23T16:04:47.372Z,101730.14
2017-09-23T16:07:15.066Z,101722.98
2017-09-23T16:09:42.705Z,101724.46
2017-09-23T16:12:10.439Z,101725.95
2017-09-23T16:14:38.087Z,101726.68
2017-09-23T16:17:05.732Z,101728.48
2017-09-23T16:19:33.322Z,101726.88
2017-09-23T16:22:00.961Z,101726.27
2017-09-23T16:24:28.565Z,101727.92
2017-09-23T16:26:56.195Z,101730.13
2017-09-23T16:29:23.842Z,101730.08
2017-09-23T16:31:51.466Z,101730.35
2017-09-23T16:34:19.080Z,101728.67
2017-09-23T16:36:46.769Z,101727.98
2017-09-23T16:39:14.393Z,101729.81
2017-09-23T16:41:42.013Z,101727.67
2017-09-23T16:44:09.896Z,101739.84
2017-09-23T16:46:37.497Z,101734.33
2017-09-23T16:49:05.135Z,101732.23
2017-09-23T16:51:32.748Z,101732.26
2017-09-23T16:54:00.382Z,101734.13
2017-09-23T16:56:27.999Z,101731.67
2017-09-23T16:58:55.637Z,101739.00
2017-09-23T17:01:23.323Z,101738.30
2017-09-23T17:03:50.958Z,101743.36
2017-09-23T17:06:18.619Z,101743.91
2017-09-23T17:08:46.276Z,101742.34
2017-09-23T17:11:13.902Z,101749.24
2017-09-23T17:13:41.538Z,101748.58
2017-09-23T17:16:09.186Z,101752.11
2017-09-23T17:18:36.956Z,101747.39
2017-09-23T17:21:04.562Z,101748.34
2017-09-23T17:23:32.279Z,101749.63
2017-09-23T17:25:59.881Z,101752.78
2017-09-23T17:28:27.595Z,101747.83
2017-09-23T17:30:55.231Z,101753.20
2017-09-23T17:33:22.853Z,101749.27
2017-09-23T17:35:50.527Z,101750.48
2017-09-23T17:38:18.138Z,101751.87
2017-09-23T17:40:45.792Z,101748.44
2017-09-23T17:43:13.454Z,101750.18
2017-09-23T17:45:41.139Z,101753.50
2017-09-23T17:48:08.762Z,101754.26
2017-09-23T17:50:36.429Z,101754.52
2017-09-23T17:53:04.107Z,101755.88
2017-09-23T17:55:31.751Z,101753.02
2017-09-23T17:57:59.396Z,101748.59
2017-09-23T18:00:27.023Z,101756.84
2017-09-23T18:02:54.659Z,101752.12
2017-09-23T18:05:22.291Z,101752.97
2017-09-23T18:07:49.927Z,101757.14
2017-09-23T18:10:17.634Z,101758.03
2017-09-23T18:12:45.317Z,101760.99
2017-09-23T18:15:12.928Z,101762.65
2017-09-23T18:17:40.576Z,101764.48
2017-09-23T18:20:08.188Z,101771.16
2017-09-23T18:22:35.795Z,101765.61
2017-09-23T18:25:03.571Z,101764.27
2017-09-23T18:27:31.212Z,101770.53
2017-09-23T18:29:58.846Z,101769.59
2017-09-23T18:32:26.462Z,101771.00
2017-09-23T18:34:54.158Z,101774.39
2017-09-23T18:37:21.782Z,101771.22
2017-09-23T18:39:49.421Z,101772.73
2017-09-23T18:42:17.083Z,101772.13
2017-09-23T18:44:44.715Z,101770.50
2017-09-23T18:47:12.351Z,101772.72
2017-09-23T18:49:40.021Z,101764.20
2017-09-23T18:52:07.628Z,101772.66
2017-09-23T18:54:35.250Z,101777.34
2017-09-23T18:57:02.926Z,101779.27
2017-09-23T18:59:30.594Z,101776.20
2017-09-23T19:01:58.247Z,101777.86
2017-09-23T19:04:25.899Z,101775.16
2017-09-23T19:06:53.503Z,101774.80
2017-09-23T19:09:21.135Z,101783.11
2017-09-23T19:11:48.753Z,101779.37
2017-09-23T19:14:16.422Z,101777.55
2017-09-23T19:16:44.026Z,101776.19
2017-09-23T19:19:11.664Z,101779.84
2017-09-23T19:21:39.283Z,101769.46
2017-09-23T19:24:06.992Z,101777.20
2017-09-23T19:26:34.733Z,101774.11
2017-09-23T19:29:02.362Z,101774.45
2017-09-23T19:31:29.962Z,101767.83
2017-09-23T19:33:57.596Z,101774.19
2017-09-23T19:36:25.219Z,101771.41
2017-09-23T19:38:52.876Z,101774.23
2017-09-23T19:41:20.490Z,101769.37
2017-09-23T19:43:48.114Z,101771.28
2017-09-23T19:46:15.741Z,101767.75
2017-09-23T19:48:43.382Z,101765.11
2017-09-23T19:53:44.782Z,101770.46
2017-09-23T19:56:12.404Z,101760.98
2017-09-23T19:58:40.044Z,101766.31
2017-09-23T20:01:07.663Z,101763.88
2017-09-23T20:03:35.311Z,101764.04
2017-09-23T20:06:03.047Z,101767.12
2017-09-23T20:08:30.704Z,101765.69
2017-09-23T20:10:58.327Z,101766.64
2017-09-23T20:13:25.962Z,101766.02
2017-09-23T20:15:53.589Z,101763.59
2017-09-23T20:18:21.266Z,101765.55
2017-09-23T20:20:48.857Z,101765.00
2017-09-23T20:23:16.511Z,101762.57
2017-09-23T20:25:44.152Z,101761.66
2017-09-23T20:28:11.787Z,101761.98
2017-09-23T20:30:39.466Z,101760.92
2017-09-23T20:33:07.077Z,101758.48
2017-09-23T20:35:34.732Z,101757.55
2017-09-23T20:38:02.339Z,101764.45
2017-09-23T20:40:29.975Z,101764.11
2017-09-23T20:42:57.621Z,101768.05
2017-09-23T20:45:25.297Z,101764.64
2017-09-23T20:47:52.910Z,101761.70
2017-09-23T20:50:20.608Z,101757.49
2017-09-23T20:52:48.213Z,101758.84
2017-09-23T20:55:15.834Z,101761.28
2017-09-23T20:57:43.470Z,101764.55
2017-09-23T21:00:11.137Z,101755.50
2017-09-23T21:02:38.767Z,101765.77
2017-09-23T21:05:06.390Z,101762.14
2017-09-23T21:07:34.035Z,101764.30
2017-09-23T21:10:01.730Z,101761.33
2017-09-23T21:12:29.427Z,101758.91
2017-09-23T21:14:57.034Z,101767.72
2017-09-23T21:17:24.690Z,101758.24
2017-09-23T21:19:52.374Z,101762.31
2017-09-23T21:22:20.043Z,101762.31
2017-09-23T21:24:47.671Z,101763.95
2017-09-23T21:27:15.318Z,101760.97
2017-09-23T21:29:43.012Z,101758.54
2017-09-23T21:32:10.642Z,101766.79
2017-09-23T21:34:38.267Z,101763.29
2017-09-23T21:37:05.918Z,101762.63
2017-09-23T21:39:33.565Z,101767.77
2017-09-23T21:42:01.230Z,101765.20
2017-09-23T21:44:28.931Z,101768.28
2017-09-23T21:46:56.575Z,101773.45
2017-09-23T21:49:24.175Z,101763.19
2017-09-23T21:51:51.771Z,101763.56
2017-09-23T21:54:19.398Z,101763.45
2017-09-23T21:56:47.866Z,101762.90
2017-09-23T21:59:15.469Z,101770.62
2017-09-23T22:01:43.465Z,101770.20
2017-09-23T22:04:11.237Z,101773.45
2017-09-23T22:06:39.768Z,101764.55
2017-09-23T22:09:08.556Z,101771.30
2017-09-23T22:11:36.171Z,101764.41
2017-09-23T22:14:03.830Z,101766.56
2017-09-23T22:16:31.453Z,101761.29
2017-09-23T22:18:59.080Z,101764.41
2017-09-23T22:21:26.775Z,101765.23
2017-09-23T22:23:54.428Z,101765.75
2017-09-23T22:26:22.039Z,101760.34
2017-09-23T22:28:49.693Z,101759.28
2017-09-23T22:31:17.351Z,101762.77
2017-09-23T22:33:44.979Z,101762.63
2017-09-23T22:36:12.600Z,101756.70
2017-09-23T22:38:40.241Z,101759.52
2017-09-23T22:41:07.871Z,101760.44
2017-09-23T22:43:35.522Z,101760.69
2017-09-23T22:46:03.167Z,101757.73
2017-09-23T22:48:30.767Z,101755.00
2017-09-23T22:50:58.395Z,101758.12
2017-09-23T22:53:26.058Z,101755.96
2017-09-23T22:55:53.698Z,101756.88
2017-09-23T22:58:21.291Z,101759.44
2017-09-23T23:00:48.945Z,101760.27
2017-09-23T23:03:16.562Z,101752.44
2017-09-23T23:05:44.227Z,101756.63
2017-09-23T23:08:11.824Z,101753.52
2017-09-23T23:10:39.466Z,101752.04
2017-09-23T23:13:07.056Z,101754.72
2017-09-23T23:15:34.679Z,101753.13
2017-09-23T23:18:02.290Z,101755.81
2017-09-23T23:20:29.916Z,101754.16
2017-09-23T23:22:57.533Z,101754.47
2017-09-23T23:25:25.187Z,101752.17
2017-09-23T23:27:52.818Z,101755.14
2017-09-23T23:30:20.446Z,101754.86
2017-09-23T23:32:48.075Z,101753.91
2017-09-23T23:35:15.734Z,101753.91
2017-09-23T23:37:43.353Z,101746.08
2017-09-23T23:40:10.970Z,101751.86
2017-09-23T23:42:38.614Z,101749.56
2017-09-23T23:45:06.241Z,101749.28
2017-09-23T23:47:33.844Z,101748.17
2017-09-23T23:50:01.524Z,101745.45
2017-09-23T23:52:29.178Z,101747.39
2017-09-23T23:54:56.815Z,101752.25
2017-09-23T23:57:24.435Z,101746.42
2017-09-23T23:59:52.066Z,101746.78
